createdAt,value
2022-08-25T00:00:06.360Z,12.61
2022-08-25T00:01:06.367Z,12.78
2022-08-25T00:02:06.366Z,12.78
2022-08-25T00:03:06.413Z,12.78
2022-08-25T00:04:06.372Z,12.94
2022-08-25T00:05:06.493Z,13.11
2022-08-25T00:06:06.379Z,13.22
2022-08-25T00:07:06.378Z,13.22
2022-08-25T00:08:06.603Z,13.39
2022-08-25T00:09:06.366Z,13.56
2022-08-25T00:10:06.375Z,13.39
2022-08-25T00:11:06.382Z,13.39
2022-08-25T00:12:06.379Z,12.94
2022-08-25T00:13:06.381Z,13.22
2022-08-25T00:14:06.370Z,13.39
2022-08-25T00:15:06.378Z,12.94
2022-08-25T00:16:06.447Z,12.94
2022-08-25T00:17:06.375Z,12.94
2022-08-25T00:18:11.549Z,12.94
2022-08-25T00:19:06.376Z,12.94
2022-08-25T00:20:06.379Z,12.94
2022-08-25T00:21:06.382Z,13.11
2022-08-25T00:22:06.381Z,13.39
2022-08-25T00:23:06.384Z,13.39
2022-08-25T00:24:06.385Z,13.39
2022-08-25T00:25:06.387Z,13.22
2022-08-25T00:26:06.391Z,13.22
2022-08-25T00:27:06.379Z,13.11
2022-08-25T00:28:08.438Z,12.94
2022-08-25T00:29:06.386Z,12.94
2022-08-25T00:30:06.382Z,12.78
2022-08-25T00:31:06.444Z,12.94
2022-08-25T00:32:06.380Z,12.94
2022-08-25T00:33:06.391Z,12.78
2022-08-25T00:34:06.392Z,12.78
2022-08-25T00:35:06.393Z,12.61
2022-08-25T00:36:06.391Z,12.61
2022-08-25T00:37:06.385Z,12.94
2022-08-25T00:38:06.543Z,12.78
2022-08-25T00:39:06.388Z,12.61
2022-08-25T00:40:06.456Z,12.5
2022-08-25T00:41:06.394Z,12.61
2022-08-25T00:42:07.441Z,12.61
2022-08-25T00:43:06.392Z,12.61
2022-08-25T00:44:06.399Z,12.5
2022-08-25T00:45:06.398Z,12.33
2022-08-25T00:46:06.421Z,12.94
2022-08-25T00:47:06.397Z,12.61
2022-08-25T00:48:06.549Z,13.11
2022-08-25T00:49:06.397Z,12.94
2022-08-25T00:50:06.403Z,13.22
2022-08-25T00:51:06.406Z,12.94
2022-08-25T00:52:06.396Z,13.11
2022-08-25T00:53:06.400Z,12.61
2022-08-25T00:54:06.408Z,12.94
2022-08-25T00:55:06.434Z,12.94
2022-08-25T00:56:06.405Z,12.5
2022-08-25T00:57:06.405Z,12.94
2022-08-25T00:58:06.467Z,12.5
2022-08-25T00:59:06.401Z,12.78
2022-08-25T01:00:06.403Z,12.78
2022-08-25T01:01:06.428Z,12.61
2022-08-25T01:02:06.411Z,12.78
2022-08-25T01:03:06.433Z,12.94
2022-08-25T01:04:06.402Z,12.94
2022-08-25T01:05:06.410Z,12.61
2022-08-25T01:06:06.402Z,12.78
2022-08-25T01:07:06.398Z,12.78
2022-08-25T01:08:06.618Z,12.94
2022-08-25T01:09:06.404Z,12.94
2022-08-25T01:10:06.398Z,12.94
2022-08-25T01:11:06.401Z,12.94
2022-08-25T01:12:06.403Z,12.5
2022-08-25T01:13:06.401Z,12.17
2022-08-25T01:14:06.409Z,11.78
2022-08-25T01:15:06.405Z,11.89
2022-08-25T01:16:06.427Z,12.17
2022-08-25T01:17:06.407Z,12.5
2022-08-25T01:18:06.564Z,12.33
2022-08-25T01:19:06.404Z,12.33
2022-08-25T01:20:06.403Z,12.5
2022-08-25T01:21:06.407Z,12.5
2022-08-25T01:22:06.408Z,12.33
2022-08-25T01:23:06.414Z,12.5
2022-08-25T01:24:06.405Z,12
2022-08-25T01:25:06.404Z,12.33
2022-08-25T01:26:06.404Z,12.5
2022-08-25T01:27:06.412Z,12.61
2022-08-25T01:28:06.595Z,12.5
2022-08-25T01:29:06.407Z,12.5
2022-08-25T01:30:06.405Z,12.5
2022-08-25T01:31:23.611Z,12.33
2022-08-25T01:32:06.408Z,12.33
2022-08-25T01:33:06.416Z,12.33
2022-08-25T01:34:06.411Z,12.17
2022-08-25T01:35:06.411Z,12.17
2022-08-25T01:36:06.413Z,12
2022-08-25T01:37:06.401Z,12
2022-08-25T01:38:06.496Z,12.5
2022-08-25T01:39:06.404Z,12.5
2022-08-25T01:40:06.442Z,12.33
2022-08-25T01:41:06.409Z,12.5
2022-08-25T01:42:06.417Z,12.5
2022-08-25T01:43:06.423Z,12.44
2022-08-25T01:44:06.408Z,12.5
2022-08-25T01:45:06.416Z,12
2022-08-25T01:46:06.461Z,12.5
2022-08-25T01:47:06.417Z,12.44
2022-08-25T01:48:06.511Z,12.5
2022-08-25T01:49:06.934Z,12.67
2022-08-25T01:50:06.423Z,12.5
2022-08-25T01:51:06.415Z,12.44
2022-08-25T01:52:06.416Z,12.72
2022-08-25T01:53:06.414Z,12.44
2022-08-25T01:54:06.418Z,12.33
2022-08-25T01:55:06.419Z,12.44
2022-08-25T01:56:06.408Z,12.28
2022-08-25T01:57:06.409Z,12.44
2022-08-25T01:58:06.501Z,12.28
2022-08-25T01:59:06.412Z,12.28
2022-08-25T02:00:06.413Z,12.5
2022-08-25T02:01:06.461Z,12.06
2022-08-25T02:02:06.475Z,11.94
2022-08-25T02:03:06.474Z,12
2022-08-25T02:04:06.410Z,11.94
2022-08-25T02:05:06.432Z,11.89
2022-08-25T02:06:06.410Z,11.83
2022-08-25T02:07:06.425Z,11.89
2022-08-25T02:08:06.574Z,11.61
2022-08-25T02:09:06.416Z,11.61
2022-08-25T02:10:06.414Z,11.61
2022-08-25T02:11:06.418Z,11.61
2022-08-25T02:12:06.419Z,11.67
2022-08-25T02:13:06.418Z,11.83
2022-08-25T02:14:06.426Z,12.11
2022-08-25T02:15:06.416Z,12.11
2022-08-25T02:16:06.418Z,11.83
2022-08-25T02:17:06.481Z,11.83
2022-08-25T02:18:06.518Z,11.83
2022-08-25T02:19:06.412Z,11.78
2022-08-25T02:20:06.423Z,11.61
2022-08-25T02:21:06.422Z,11.72
2022-08-25T02:22:06.420Z,11.5
2022-08-25T02:23:06.423Z,11.61
2022-08-25T02:24:06.426Z,11.28
2022-08-25T02:25:06.420Z,11.44
2022-08-25T02:26:06.411Z,11.61
2022-08-25T02:27:06.417Z,11.44
2022-08-25T02:28:06.535Z,11.06
2022-08-25T02:29:06.423Z,11.5
2022-08-25T02:30:06.427Z,11.44
2022-08-25T02:31:06.454Z,11.44
2022-08-25T02:32:06.426Z,11.5
2022-08-25T02:33:06.430Z,11.83
2022-08-25T02:34:06.437Z,11.83
2022-08-25T02:35:06.432Z,11.83
2022-08-25T02:36:06.432Z,11.83
2022-08-25T02:37:06.438Z,11.72
2022-08-25T02:38:06.540Z,11.83
2022-08-25T02:39:06.435Z,11.44
2022-08-25T02:40:06.496Z,11.67
2022-08-25T02:41:06.436Z,11.61
2022-08-25T02:42:06.440Z,11.44
2022-08-25T02:43:06.438Z,11.72
2022-08-25T02:44:06.446Z,11.61
2022-08-25T02:45:06.431Z,11.44
2022-08-25T02:46:06.479Z,11.44
2022-08-25T02:47:06.443Z,11.44
2022-08-25T02:48:06.637Z,11.61
2022-08-25T02:49:06.448Z,11.44
2022-08-25T02:50:06.447Z,11.44
2022-08-25T02:51:06.451Z,11.11
2022-08-25T02:52:06.461Z,11.11
2022-08-25T02:53:06.452Z,11.28
2022-08-25T02:54:06.444Z,11.44
2022-08-25T02:55:06.444Z,11.28
2022-08-25T02:56:06.459Z,11
2022-08-25T02:57:06.471Z,11.61
2022-08-25T02:58:06.631Z,11.44
2022-08-25T02:59:06.451Z,11.61
2022-08-25T03:00:06.458Z,11.61
2022-08-25T03:01:06.481Z,11.44
2022-08-25T03:02:06.457Z,11.44
2022-08-25T03:03:06.469Z,11.44
2022-08-25T03:04:06.456Z,11.28
2022-08-25T03:05:06.576Z,11.44
2022-08-25T03:06:06.459Z,11.61
2022-08-25T03:07:06.451Z,11
2022-08-25T03:08:06.653Z,11.28
2022-08-25T03:09:06.457Z,11.61
2022-08-25T03:10:06.457Z,11.61
2022-08-25T03:11:06.462Z,11.72
2022-08-25T03:12:06.463Z,11.44
2022-08-25T03:13:06.470Z,11.44
2022-08-25T03:14:06.464Z,11.44
2022-08-25T03:15:09.227Z,11.44
2022-08-25T03:16:11.147Z,11.44
2022-08-25T03:17:08.645Z,11.11
2022-08-25T03:18:06.581Z,11
2022-08-25T03:19:06.465Z,11.44
2022-08-25T03:20:06.470Z,11.44
2022-08-25T03:21:06.472Z,11.44
2022-08-25T03:22:06.468Z,11.28
2022-08-25T03:23:06.464Z,11.11
2022-08-25T03:24:06.475Z,11.11
2022-08-25T03:25:06.479Z,11.44
2022-08-25T03:26:06.480Z,11.28
2022-08-25T03:27:06.473Z,11.61
2022-08-25T03:28:06.671Z,11.44
2022-08-25T03:29:06.469Z,11.44
2022-08-25T03:30:06.479Z,11.44
2022-08-25T03:31:06.478Z,11.28
2022-08-25T03:32:06.501Z,11.11
2022-08-25T03:33:06.482Z,11.28
2022-08-25T03:34:06.477Z,11.28
2022-08-25T03:35:06.472Z,11.28
2022-08-25T03:36:06.479Z,11.44
2022-08-25T03:37:06.481Z,11.44
2022-08-25T03:38:06.592Z,11.44
2022-08-25T03:39:06.485Z,11.72
2022-08-25T03:40:06.516Z,11.28
2022-08-25T03:41:06.483Z,11.83
2022-08-25T03:42:06.479Z,11.72
2022-08-25T03:43:06.479Z,11.28
2022-08-25T03:44:06.482Z,11.44
2022-08-25T03:45:06.475Z,11.44
2022-08-25T03:46:06.567Z,11.44
2022-08-25T03:47:06.483Z,11.11
2022-08-25T03:48:06.556Z,11.44
2022-08-25T03:49:06.485Z,11.11
2022-08-25T03:50:06.481Z,11.28
2022-08-25T03:51:06.486Z,11.61
2022-08-25T03:52:06.485Z,11.44
2022-08-25T03:53:06.487Z,10.83
2022-08-25T03:54:06.491Z,11
2022-08-25T03:55:06.487Z,11
2022-08-25T03:56:06.501Z,11
2022-08-25T03:57:06.485Z,11
2022-08-25T03:58:06.577Z,10.56
2022-08-25T03:59:06.487Z,10.67
2022-08-25T04:00:06.485Z,10.67
2022-08-25T04:01:06.540Z,10.67
2022-08-25T04:02:06.540Z,10.56
2022-08-25T04:03:06.487Z,10.56
2022-08-25T04:04:06.495Z,10.56
2022-08-25T04:05:06.495Z,10.83
2022-08-25T04:06:06.488Z,10.83
2022-08-25T04:07:06.497Z,11.11
2022-08-25T04:08:06.624Z,11.28
2022-08-25T04:09:06.494Z,11
2022-08-25T04:10:06.490Z,11.44
2022-08-25T04:11:06.498Z,11.44
2022-08-25T04:12:06.498Z,11.44
2022-08-25T04:13:06.491Z,11.28
2022-08-25T04:14:06.498Z,11.44
2022-08-25T04:15:06.492Z,11.28
2022-08-25T04:16:06.542Z,11.11
2022-08-25T04:17:06.497Z,11.44
2022-08-25T04:18:06.685Z,11.28
2022-08-25T04:19:06.497Z,11
2022-08-25T04:20:06.499Z,11.11
2022-08-25T04:21:06.494Z,11.11
2022-08-25T04:22:06.495Z,11.28
2022-08-25T04:23:06.493Z,11.11
2022-08-25T04:24:06.499Z,11.11
2022-08-25T04:25:06.502Z,11.11
2022-08-25T04:26:06.501Z,11
2022-08-25T04:27:06.500Z,11
2022-08-25T04:28:06.667Z,11.11
2022-08-25T04:29:06.497Z,11
2022-08-25T04:30:06.497Z,11
2022-08-25T04:31:06.502Z,11
2022-08-25T04:32:06.550Z,11.11
2022-08-25T04:33:06.499Z,11
2022-08-25T04:34:07.965Z,11.11
2022-08-25T04:35:06.505Z,11
2022-08-25T04:36:10.134Z,11
2022-08-25T04:37:06.504Z,10.83
2022-08-25T04:38:06.596Z,11
2022-08-25T04:39:06.506Z,11.28
2022-08-25T04:40:06.563Z,11.11
2022-08-25T04:41:06.513Z,11.11
2022-08-25T04:42:06.502Z,11.11
2022-08-25T04:43:06.498Z,10.67
2022-08-25T04:44:06.503Z,10.83
2022-08-25T04:45:06.511Z,11.11
2022-08-25T04:46:06.635Z,10.83
2022-08-25T04:47:06.503Z,11
2022-08-25T04:48:06.677Z,10.83
2022-08-25T04:49:06.496Z,10.83
2022-08-25T04:50:06.504Z,11.28
2022-08-25T04:51:06.507Z,11.11
2022-08-25T04:52:07.645Z,11.28
2022-08-25T04:53:06.504Z,11.44
2022-08-25T04:54:06.499Z,11.11
2022-08-25T04:55:06.503Z,11.28
2022-08-25T04:56:06.506Z,11.28
2022-08-25T04:57:06.507Z,11
2022-08-25T04:58:06.629Z,10.83
2022-08-25T04:59:06.502Z,11.28
2022-08-25T05:00:06.496Z,11.44
2022-08-25T05:01:06.542Z,11.44
2022-08-25T05:02:06.512Z,11.28
2022-08-25T05:03:06.500Z,11.28
2022-08-25T05:04:06.530Z,11
2022-08-25T05:05:06.503Z,11.44
2022-08-25T05:06:06.510Z,11.28
2022-08-25T05:07:06.525Z,11.44
2022-08-25T05:08:06.652Z,11.28
2022-08-25T05:09:06.503Z,11.44
2022-08-25T05:10:06.508Z,11.28
2022-08-25T05:11:06.503Z,11.44
2022-08-25T05:12:06.505Z,11.44
2022-08-25T05:13:06.516Z,11.61
2022-08-25T05:14:06.505Z,11.61
2022-08-25T05:15:06.506Z,11.83
2022-08-25T05:16:06.550Z,11.72
2022-08-25T05:17:06.511Z,11.83
2022-08-25T05:18:06.608Z,11.83
2022-08-25T05:19:06.507Z,11.83
2022-08-25T05:20:06.520Z,11.83
2022-08-25T05:21:06.517Z,12.11
2022-08-25T05:22:06.510Z,11.83
2022-08-25T05:23:06.513Z,11.83
2022-08-25T05:24:06.509Z,11.83
2022-08-25T05:25:06.511Z,11.94
2022-08-25T05:26:06.525Z,11.94
2022-08-25T05:27:06.520Z,11.83
2022-08-25T05:28:06.677Z,11.83
2022-08-25T05:29:06.513Z,11.83
2022-08-25T05:30:06.531Z,11.94
2022-08-25T05:31:06.608Z,11.83
2022-08-25T05:32:06.547Z,11.94
2022-08-25T05:33:06.541Z,12.11
2022-08-25T05:34:06.517Z,12.28
2022-08-25T05:35:06.518Z,12.28
2022-08-25T05:36:06.511Z,12.28
2022-08-25T05:37:09.241Z,12.56
2022-08-25T05:38:06.621Z,12.56
2022-08-25T05:39:06.513Z,12.72
2022-08-25T05:40:06.577Z,12.72
2022-08-25T05:41:06.512Z,12.56
2022-08-25T05:42:06.525Z,12.44
2022-08-25T05:43:06.521Z,12.11
2022-08-25T05:44:06.522Z,12.44
2022-08-25T05:45:06.519Z,12.72
2022-08-25T05:46:06.581Z,12.89
2022-08-25T05:47:06.528Z,13.17
2022-08-25T05:48:06.650Z,13.33
2022-08-25T05:49:06.527Z,13.17
2022-08-25T05:50:06.522Z,13.5
2022-08-25T05:51:06.523Z,13.5
2022-08-25T05:52:06.524Z,13.67
2022-08-25T05:53:06.524Z,14.06
2022-08-25T05:54:06.534Z,14.06
2022-08-25T05:55:06.521Z,14.56
2022-08-25T05:56:06.525Z,15.39
2022-08-25T05:57:06.530Z,16.67
2022-08-25T05:58:06.672Z,17.17
2022-08-25T05:59:09.411Z,17.78
2022-08-25T06:00:06.531Z,18.44
2022-08-25T06:01:06.592Z,19.72
2022-08-25T06:02:06.531Z,19.56
2022-08-25T06:03:06.533Z,19.94
2022-08-25T06:04:06.597Z,19.94
2022-08-25T06:05:06.535Z,19.72
2022-08-25T06:06:06.527Z,20.06
2022-08-25T06:07:06.536Z,19.28
2022-08-25T06:08:06.616Z,19.28
2022-08-25T06:09:06.543Z,18.56
2022-08-25T06:10:06.538Z,19.28
2022-08-25T06:11:06.536Z,19.56
2022-08-25T06:12:06.536Z,19.94
2022-08-25T06:13:06.645Z,19.94
2022-08-25T06:14:06.549Z,19.39
2022-08-25T06:15:06.535Z,19.28
2022-08-25T06:16:06.592Z,19.39
2022-08-25T06:17:06.542Z,20.72
2022-08-25T06:18:06.690Z,20.5
2022-08-25T06:19:06.551Z,20.5
2022-08-25T06:20:06.546Z,20.72
2022-08-25T06:21:06.552Z,20.5
2022-08-25T06:22:06.552Z,20.72
2022-08-25T06:23:06.577Z,20.83
2022-08-25T06:24:06.550Z,20.22
2022-08-25T06:25:06.557Z,20.22
2022-08-25T06:26:06.547Z,20.06
2022-08-25T06:27:06.552Z,19.56
2022-08-25T06:28:06.646Z,20.22
2022-08-25T06:29:06.568Z,20.33
2022-08-25T06:30:07.792Z,21.17
2022-08-25T06:31:06.610Z,22.06
2022-08-25T06:32:06.553Z,21.5
2022-08-25T06:33:06.545Z,22.39
2022-08-25T06:34:06.560Z,22.22
2022-08-25T06:35:06.568Z,21
2022-08-25T06:36:06.560Z,20.5
2022-08-25T06:37:06.564Z,20.5
2022-08-25T06:38:06.707Z,21.72
2022-08-25T06:39:06.554Z,22.22
2022-08-25T06:40:06.589Z,22.22
2022-08-25T06:41:06.562Z,22.22
2022-08-25T06:42:06.563Z,20.72
2022-08-25T06:43:06.562Z,22.06
2022-08-25T06:44:06.561Z,22.22
2022-08-25T06:45:06.568Z,22.22
2022-08-25T06:46:06.567Z,22.39
2022-08-25T06:47:06.624Z,21.72
2022-08-25T06:48:06.654Z,23.28
2022-08-25T06:49:06.570Z,23.28
2022-08-25T06:50:06.560Z,23.83
2022-08-25T06:51:06.568Z,23.83
2022-08-25T06:52:06.565Z,24
2022-08-25T06:53:06.572Z,24.89
2022-08-25T06:54:06.576Z,24.17
2022-08-25T06:55:06.575Z,23.44
2022-08-25T06:56:06.857Z,23.83
2022-08-25T06:57:06.573Z,23.28
2022-08-25T06:58:06.640Z,22.94
2022-08-25T06:59:06.576Z,22.78
2022-08-25T07:00:06.571Z,22.78
2022-08-25T07:01:06.659Z,22.78
2022-08-25T07:02:06.642Z,22.78
2022-08-25T07:03:07.053Z,23.67
2022-08-25T07:04:10.224Z,23.83
2022-08-25T07:05:08.195Z,23.67
2022-08-25T07:06:06.579Z,23.83
2022-08-25T07:07:06.579Z,23.28
2022-08-25T07:08:06.682Z,23.11
2022-08-25T07:09:06.582Z,22.94
2022-08-25T07:10:06.589Z,23.28
2022-08-25T07:11:06.590Z,23.11
2022-08-25T07:12:06.582Z,23.83
2022-08-25T07:13:06.577Z,23.67
2022-08-25T07:14:06.583Z,23.67
2022-08-25T07:15:21.170Z,23.83
2022-08-25T07:16:06.598Z,23.67
2022-08-25T07:17:09.068Z,24.39
2022-08-25T07:18:06.799Z,24.39
2022-08-25T07:19:06.591Z,23.83
2022-08-25T07:20:06.612Z,23.44
2022-08-25T07:21:08.750Z,23.83
2022-08-25T07:22:06.588Z,24
2022-08-25T07:23:06.693Z,23.44
2022-08-25T07:24:06.580Z,23.28
2022-08-25T07:25:06.587Z,22.78
2022-08-25T07:26:15.643Z,22.06
2022-08-25T07:27:06.593Z,21.39
2022-08-25T07:28:06.588Z,20.72
2022-08-25T07:29:06.586Z,19.72
2022-08-25T07:30:06.590Z,19.28
2022-08-25T07:31:06.620Z,19.39
2022-08-25T07:32:06.596Z,19.72
2022-08-25T07:33:06.850Z,19.39
2022-08-25T07:34:06.585Z,19.56
2022-08-25T07:35:06.592Z,19.72
2022-08-25T07:36:06.595Z,19.28
2022-08-25T07:37:06.591Z,18.89
2022-08-25T07:38:06.593Z,19.39
2022-08-25T07:39:06.589Z,19.56
2022-08-25T07:40:06.642Z,19.56
2022-08-25T07:41:06.596Z,19.72
2022-08-25T07:42:07.691Z,19.94
2022-08-25T07:43:06.731Z,19.28
2022-08-25T07:44:06.603Z,19.06
2022-08-25T07:45:07.287Z,18.28
2022-08-25T07:46:06.644Z,18.78
2022-08-25T07:47:06.590Z,18.78
2022-08-25T07:48:06.598Z,18.28
2022-08-25T07:49:09.240Z,18.44
2022-08-25T07:50:06.591Z,18.28
2022-08-25T07:51:07.502Z,18.56
2022-08-25T07:52:06.962Z,19.28
2022-08-25T07:53:06.884Z,19.72
2022-08-25T07:54:06.597Z,19.94
2022-08-25T07:55:06.601Z,19.72
2022-08-25T07:56:06.617Z,20.22
2022-08-25T07:57:06.601Z,19.94
2022-08-25T07:58:06.745Z,20.06
2022-08-25T07:59:06.610Z,20.22
2022-08-25T08:00:06.597Z,20.33
2022-08-25T08:01:06.606Z,19.94
2022-08-25T08:02:06.637Z,19.89
2022-08-25T08:03:06.984Z,19.56
2022-08-25T08:04:06.670Z,18.94
2022-08-25T08:05:08.268Z,18.94
2022-08-25T08:06:06.614Z,19.56
2022-08-25T08:07:06.611Z,20.33
2022-08-25T08:08:06.752Z,20.72
2022-08-25T08:09:06.618Z,21
2022-08-25T08:10:37.380Z,21
2022-08-25T08:11:06.613Z,21
2022-08-25T08:12:06.611Z,21.22
2022-08-25T08:13:07.623Z,20.56
2022-08-25T08:14:06.634Z,20.72
2022-08-25T08:15:10.208Z,20.72
2022-08-25T08:16:06.652Z,20.72
2022-08-25T08:17:06.617Z,20.83
2022-08-25T08:18:07.173Z,20.72
2022-08-25T08:19:06.611Z,20.72
2022-08-25T08:20:06.617Z,20.33
2022-08-25T08:21:06.621Z,20.56
2022-08-25T08:22:06.612Z,20.83
2022-08-25T08:23:06.789Z,21.22
2022-08-25T08:24:11.082Z,20.83
2022-08-25T08:25:08.556Z,21.72
2022-08-25T08:26:06.615Z,21.72
2022-08-25T08:27:06.622Z,21.56
2022-08-25T08:28:07.358Z,21.89
2022-08-25T08:29:06.616Z,21.89
2022-08-25T08:30:06.617Z,22.22
2022-08-25T08:31:06.683Z,21.89
2022-08-25T08:32:06.620Z,21
2022-08-25T08:33:09.947Z,21.56
2022-08-25T08:34:06.619Z,21.22
2022-08-25T08:35:06.616Z,21
2022-08-25T08:36:06.624Z,21
2022-08-25T08:37:06.616Z,21.39
2022-08-25T08:38:13.718Z,21
2022-08-25T08:39:06.623Z,20.56
2022-08-25T08:40:06.697Z,20.22
2022-08-25T08:41:06.618Z,20.22
2022-08-25T08:42:11.080Z,21.39
2022-08-25T08:43:06.753Z,21.72
2022-08-25T08:44:06.631Z,21.72
2022-08-25T08:45:06.621Z,21.89
2022-08-25T08:46:06.694Z,21.89
2022-08-25T08:47:07.080Z,22.22
2022-08-25T08:48:06.832Z,22.06
2022-08-25T08:49:06.628Z,20.83
2022-08-25T08:50:06.623Z,21.56
2022-08-25T08:51:06.753Z,21.56
2022-08-25T08:52:06.625Z,21.89
2022-08-25T08:53:06.663Z,21.72
2022-08-25T08:54:06.620Z,20.33
2022-08-25T08:55:06.644Z,20.11
2022-08-25T08:56:06.626Z,20.11
2022-08-25T08:57:06.626Z,20.22
2022-08-25T08:58:06.810Z,20.72
2022-08-25T08:59:06.705Z,20.83
2022-08-25T09:00:06.624Z,20.33
2022-08-25T09:01:06.630Z,20.83
2022-08-25T09:02:06.715Z,21
2022-08-25T09:03:06.837Z,21
2022-08-25T09:04:06.630Z,20.83
2022-08-25T09:05:06.633Z,20.83
2022-08-25T09:06:06.871Z,21.22
2022-08-25T09:07:06.628Z,21.39
2022-08-25T09:08:06.780Z,21.39
2022-08-25T09:09:06.774Z,21.39
2022-08-25T09:10:06.632Z,21.89
2022-08-25T09:11:06.628Z,21.89
2022-08-25T09:12:06.629Z,21.39
2022-08-25T09:13:11.498Z,22.56
2022-08-25T09:14:06.633Z,22.94
2022-08-25T09:15:12.160Z,23.28
2022-08-25T09:16:06.698Z,23.44
2022-08-25T09:17:06.631Z,23.44
2022-08-25T09:18:06.640Z,23.44
2022-08-25T09:19:06.634Z,23.44
2022-08-25T09:20:18.443Z,23.11
2022-08-25T09:21:07.208Z,22.56
2022-08-25T09:22:34.211Z,22.94
2022-08-25T09:23:06.635Z,23.44
2022-08-25T09:24:06.641Z,23.83
2022-08-25T09:25:08.612Z,22.94
2022-08-25T09:26:06.636Z,22.94
2022-08-25T09:27:06.633Z,22.94
2022-08-25T09:28:06.913Z,22.78
2022-08-25T09:29:06.640Z,24
2022-08-25T09:30:06.643Z,23.44
2022-08-25T09:31:06.662Z,24.56
2022-08-25T09:32:06.644Z,24.17
2022-08-25T09:33:06.646Z,23.11
2022-08-25T09:34:06.643Z,22.06
2022-08-25T09:35:06.653Z,21.89
2022-08-25T09:36:08.942Z,22.22
2022-08-25T09:37:06.642Z,22.39
2022-08-25T09:38:06.787Z,22.56
2022-08-25T09:39:06.704Z,22.06
2022-08-25T09:40:06.703Z,22.17
2022-08-25T09:41:06.642Z,22.78
2022-08-25T09:42:06.651Z,23.28
2022-08-25T09:43:06.646Z,23.39
2022-08-25T09:44:06.645Z,22.06
2022-08-25T09:45:06.651Z,21.72
2022-08-25T09:46:06.680Z,22.06
2022-08-25T09:47:08.131Z,22.61
2022-08-25T09:48:06.884Z,22.39
2022-08-25T09:49:06.665Z,22.61
2022-08-25T09:50:06.654Z,22.61
2022-08-25T09:51:06.661Z,23.11
2022-08-25T09:52:06.652Z,22.61
2022-08-25T09:53:17.082Z,22.61
2022-08-25T09:54:10.641Z,23.11
2022-08-25T09:55:06.650Z,22.61
2022-08-25T09:56:06.652Z,22.78
2022-08-25T09:57:08.665Z,23.11
2022-08-25T09:58:06.930Z,23.11
2022-08-25T09:59:06.655Z,23.44
2022-08-25T10:00:06.654Z,24
2022-08-25T10:01:06.701Z,24.17
2022-08-25T10:02:06.657Z,24.17
2022-08-25T10:03:06.925Z,23.44
2022-08-25T10:04:06.769Z,23.28
2022-08-25T10:05:06.716Z,23.44
2022-08-25T10:06:06.663Z,23.67
2022-08-25T10:07:08.623Z,24.17
2022-08-25T10:08:06.674Z,24.17
2022-08-25T10:09:06.771Z,23.67
2022-08-25T10:10:06.667Z,23.67
2022-08-25T10:11:06.657Z,23.67
2022-08-25T10:12:06.666Z,23.11
2022-08-25T10:13:06.882Z,23.67
2022-08-25T10:14:06.656Z,24.33
2022-08-25T10:15:06.659Z,25.22
2022-08-25T10:16:18.040Z,25.22
2022-08-25T10:17:06.670Z,24.5
2022-08-25T10:18:06.661Z,24
2022-08-25T10:19:06.665Z,24.17
2022-08-25T10:20:06.670Z,23.28
2022-08-25T10:21:07.705Z,23.28
2022-08-25T10:22:06.665Z,23.83
2022-08-25T10:23:06.826Z,24
2022-08-25T10:24:06.660Z,23.67
2022-08-25T10:25:06.656Z,24.17
2022-08-25T10:26:06.664Z,24.5
2022-08-25T10:27:06.664Z,24.67
2022-08-25T10:28:06.822Z,25.22
2022-08-25T10:29:06.680Z,24.67
2022-08-25T10:30:06.667Z,24.33
2022-08-25T10:31:06.713Z,24.67
2022-08-25T10:32:10.281Z,24.67
2022-08-25T10:33:06.805Z,24.67
2022-08-25T10:34:06.664Z,24.89
2022-08-25T10:35:06.665Z,24.89
2022-08-25T10:36:06.656Z,24.89
2022-08-25T10:37:09.178Z,24.89
2022-08-25T10:38:06.670Z,25.22
2022-08-25T10:39:06.665Z,25.22
2022-08-25T10:40:06.694Z,24.67
2022-08-25T10:41:06.666Z,24.33
2022-08-25T10:42:06.668Z,24.67
2022-08-25T10:43:06.769Z,24.17
2022-08-25T10:44:06.668Z,24.17
2022-08-25T10:45:06.671Z,24.17
2022-08-25T10:46:06.722Z,24.5
2022-08-25T10:47:06.670Z,24.17
2022-08-25T10:48:06.675Z,24.17
2022-08-25T10:49:06.670Z,24.89
2022-08-25T10:50:06.667Z,25.78
2022-08-25T10:51:06.673Z,25.78
2022-08-25T10:52:06.672Z,25.78
2022-08-25T10:53:06.856Z,25.22
2022-08-25T10:54:06.669Z,24.5
2022-08-25T10:55:06.666Z,24.5
2022-08-25T10:56:07.227Z,24.33
2022-08-25T10:57:07.133Z,24.67
2022-08-25T10:58:06.675Z,24.67
2022-08-25T10:59:06.668Z,25.22
2022-08-25T11:00:06.672Z,25.78
2022-08-25T11:01:06.711Z,25.44
2022-08-25T11:02:06.713Z,25.22
2022-08-25T11:03:06.877Z,25.22
2022-08-25T11:04:06.701Z,24.89
2022-08-25T11:05:06.864Z,24.67
2022-08-25T11:06:06.671Z,26.33
2022-08-25T11:07:06.684Z,26.72
2022-08-25T11:08:06.682Z,26.72
2022-08-25T11:09:06.668Z,25.78
2022-08-25T11:10:06.676Z,25.78
2022-08-25T11:11:06.676Z,26.72
2022-08-25T11:12:06.679Z,26.89
2022-08-25T11:13:06.897Z,26.89
2022-08-25T11:14:09.439Z,25.78
2022-08-25T11:15:06.678Z,26.33
2022-08-25T11:16:16.909Z,25.61
2022-08-25T11:17:06.780Z,25.44
2022-08-25T11:18:10.262Z,25.44
2022-08-25T11:19:06.672Z,26
2022-08-25T11:20:06.679Z,26.33
2022-08-25T11:21:06.689Z,26.56
2022-08-25T11:22:06.679Z,26.17
2022-08-25T11:23:06.930Z,26
2022-08-25T11:24:06.684Z,26
2022-08-25T11:25:06.677Z,26.56
2022-08-25T11:26:06.678Z,26.56
2022-08-25T11:27:06.674Z,26
2022-08-25T11:28:06.917Z,26
2022-08-25T11:29:07.754Z,26.56
2022-08-25T11:30:07.047Z,27.17
2022-08-25T11:31:06.791Z,26.89
2022-08-25T11:32:06.687Z,26.56
2022-08-25T11:33:06.697Z,26.56
2022-08-25T11:34:06.682Z,26.17
2022-08-25T11:35:06.682Z,26.94
2022-08-25T11:36:06.912Z,26.94
2022-08-25T11:37:06.692Z,26.89
2022-08-25T11:38:06.939Z,26.72
2022-08-25T11:39:06.695Z,26.94
2022-08-25T11:40:06.747Z,26.56
2022-08-25T11:41:10.939Z,26.56
2022-08-25T11:42:06.682Z,26.56
2022-08-25T11:43:08.141Z,27.5
2022-08-25T11:44:06.688Z,27.5
2022-08-25T11:45:06.695Z,27.94
2022-08-25T11:46:06.738Z,27.94
2022-08-25T11:47:06.683Z,27.5
2022-08-25T11:48:06.809Z,27.94
2022-08-25T11:49:06.695Z,28.11
2022-08-25T11:50:06.709Z,27.39
2022-08-25T11:51:06.702Z,27.5
2022-08-25T11:52:06.686Z,27.5
2022-08-25T11:53:06.684Z,27.17
2022-08-25T11:54:06.680Z,27.5
2022-08-25T11:55:06.688Z,27.39
2022-08-25T11:56:06.692Z,27.39
2022-08-25T11:57:06.689Z,27.17
2022-08-25T11:58:06.930Z,28.33
2022-08-25T11:59:06.691Z,28.72
2022-08-25T12:00:06.695Z,29.33
2022-08-25T12:01:06.694Z,29.33
2022-08-25T12:02:06.692Z,28.94
2022-08-25T12:03:06.695Z,28.33
2022-08-25T12:04:06.735Z,28.56
2022-08-25T12:05:06.807Z,28.72
2022-08-25T12:06:06.688Z,28.72
2022-08-25T12:07:06.847Z,27.72
2022-08-25T12:08:06.905Z,28.11
2022-08-25T12:09:06.691Z,28.11
2022-08-25T12:10:06.679Z,27.5
2022-08-25T12:11:10.823Z,27.39
2022-08-25T12:12:06.685Z,27.5
2022-08-25T12:13:08.106Z,26.94
2022-08-25T12:14:06.690Z,26.94
2022-08-25T12:15:06.682Z,27.5
2022-08-25T12:16:06.692Z,27.5
2022-08-25T12:17:06.686Z,27.72
2022-08-25T12:18:08.602Z,27.17
2022-08-25T12:19:06.697Z,27.5
2022-08-25T12:20:06.747Z,27.5
2022-08-25T12:21:06.693Z,27.5
2022-08-25T12:22:06.690Z,27.94
2022-08-25T12:23:06.690Z,28.11
2022-08-25T12:24:06.698Z,28.33
2022-08-25T12:25:06.701Z,28.11
2022-08-25T12:26:06.697Z,27.5
2022-08-25T12:27:06.751Z,27.72
2022-08-25T12:28:06.917Z,27.72
2022-08-25T12:29:07.425Z,27.94
2022-08-25T12:30:06.707Z,28.11
2022-08-25T12:31:06.767Z,28.11
2022-08-25T12:32:06.708Z,29.17
2022-08-25T12:33:06.703Z,28.78
2022-08-25T12:34:06.701Z,29.28
2022-08-25T12:35:06.707Z,29.28
2022-08-25T12:36:06.714Z,28.67
2022-08-25T12:37:06.710Z,28.33
2022-08-25T12:38:06.943Z,28.33
2022-08-25T12:39:06.712Z,29.5
2022-08-25T12:40:06.793Z,29.5
2022-08-25T12:41:06.721Z,30.28
2022-08-25T12:42:06.761Z,30.72
2022-08-25T12:43:06.979Z,29.89
2022-08-25T12:44:06.711Z,30.28
2022-08-25T12:45:06.721Z,30.28
2022-08-25T12:46:06.753Z,29.28
2022-08-25T12:47:06.716Z,28.56
2022-08-25T12:48:06.713Z,29.11
2022-08-25T12:49:06.716Z,30.28
2022-08-25T12:50:06.711Z,29.5
2022-08-25T12:51:06.721Z,28.89
2022-08-25T12:52:06.725Z,28.89
2022-08-25T12:53:06.860Z,28.89
2022-08-25T12:54:10.376Z,29.5
2022-08-25T12:55:06.731Z,29.5
2022-08-25T12:56:06.737Z,30.11
2022-08-25T12:57:06.720Z,28.89
2022-08-25T12:58:06.729Z,28.11
2022-08-25T12:59:06.736Z,27.72